createdAt,value
2023-04-24T00:02:28.503Z,1.30
2023-04-24T00:04:57.662Z,1.20
2023-04-24T00:07:26.058Z,1.27
2023-04-24T00:09:54.501Z,1.27
2023-04-24T00:12:23.113Z,0.90
2023-04-24T00:14:51.435Z,1.00
2023-04-24T00:17:21.674Z,0.80
2023-04-24T00:19:52.378Z,1.23
2023-04-24T00:22:21.809Z,1.30
2023-04-24T00:24:50.229Z,1.10
2023-04-24T00:27:18.714Z,1.40
2023-04-24T00:29:47.082Z,1.07
2023-04-24T00:32:16.331Z,1.40
2023-04-24T00:34:45.053Z,1.23
2023-04-24T00:37:14.939Z,1.23
2023-04-24T00:39:46.915Z,1.50
2023-04-24T00:42:15.618Z,1.53
2023-04-24T00:44:44.131Z,1.20
2023-04-24T00:47:14.202Z,1.40
2023-04-24T00:49:42.719Z,1.10
2023-04-24T00:52:11.843Z,1.47
2023-04-24T00:54:41.604Z,0.90
2023-04-24T00:57:10.124Z,1.30
2023-04-24T00:59:38.814Z,1.20
2023-04-24T01:02:08.518Z,1.67
2023-04-24T01:04:37.520Z,1.03
2023-04-24T01:07:10.936Z,1.00
2023-04-24T01:09:42.986Z,1.10
2023-04-24T01:12:12.025Z,1.47
2023-04-24T01:14:40.558Z,1.27
2023-04-24T01:17:10.350Z,1.33
2023-04-24T01:19:39.197Z,1.00
2023-04-24T01:22:13.507Z,1.33
2023-04-24T01:24:42.158Z,0.90
2023-04-24T01:27:12.684Z,0.90
2023-04-24T01:29:41.563Z,1.03
2023-04-24T01:32:12.153Z,1.10
2023-04-24T01:34:41.259Z,1.30
2023-04-24T01:37:11.085Z,1.03
2023-04-24T01:39:39.752Z,1.33
2023-04-24T01:42:09.353Z,0.97
2023-04-24T01:44:38.097Z,1.03
2023-04-24T01:47:07.840Z,0.77
2023-04-24T01:49:36.680Z,1.13
2023-04-24T01:52:05.101Z,1.07
2023-04-24T01:54:34.881Z,1.00
2023-04-24T01:57:04.144Z,1.60
2023-04-24T01:59:33.682Z,1.20
2023-04-24T02:02:02.104Z,1.07
2023-04-24T02:04:30.936Z,1.20
2023-04-24T02:06:59.448Z,1.50
2023-04-24T02:09:27.939Z,1.77
2023-04-24T02:11:57.651Z,1.33
2023-04-24T02:14:26.286Z,1.33
2023-04-24T02:16:55.419Z,1.10
2023-04-24T02:19:23.812Z,1.23
2023-04-24T02:21:52.936Z,1.27
2023-04-24T02:24:21.512Z,1.10
2023-04-24T02:26:50.007Z,1.40
2023-04-24T02:29:19.773Z,1.23
2023-04-24T02:31:48.259Z,1.03
2023-04-24T02:34:17.396Z,1.17
2023-04-24T02:36:45.764Z,1.27
2023-04-24T02:39:14.479Z,1.40
2023-04-24T02:41:42.895Z,1.07
2023-04-24T02:44:11.506Z,1.23
2023-04-24T02:46:51.821Z,1.20
2023-04-24T02:49:20.245Z,1.20
2023-04-24T02:51:48.599Z,0.80
2023-04-24T02:54:17.162Z,1.40
2023-04-24T02:56:45.673Z,0.83
2023-04-24T02:59:14.029Z,1.00
2023-04-24T03:01:43.897Z,0.80
2023-04-24T03:04:12.822Z,0.90
2023-04-24T03:06:41.471Z,1.40
2023-04-24T03:09:09.929Z,1.00
2023-04-24T03:11:38.302Z,1.70
2023-04-24T03:14:06.647Z,1.20
2023-04-24T03:16:35.289Z,1.07
2023-04-24T03:19:05.149Z,0.90
2023-04-24T03:21:41.456Z,1.37
2023-04-24T03:24:09.941Z,1.10
2023-04-24T03:26:39.107Z,0.90
2023-04-24T03:29:20.830Z,1.17
2023-04-24T03:31:49.193Z,0.90
2023-04-24T03:34:19.593Z,1.17
2023-04-24T03:36:49.548Z,1.13
2023-04-24T03:39:18.174Z,1.20
2023-04-24T03:41:53.317Z,0.97
2023-04-24T03:44:26.541Z,1.57
2023-04-24T03:46:54.922Z,1.10
2023-04-24T03:49:26.946Z,1.10
2023-04-24T03:51:55.372Z,1.07
2023-04-24T03:54:25.887Z,1.33
2023-04-24T03:56:55.869Z,1.30
2023-04-24T03:59:25.819Z,1.10
2023-04-24T04:02:17.001Z,1.60
2023-04-24T04:04:46.972Z,1.23
2023-04-24T04:07:15.900Z,0.90
2023-04-24T04:09:44.504Z,1.20
2023-04-24T04:12:13.831Z,1.10
2023-04-24T04:14:42.354Z,0.90
2023-04-24T04:17:10.781Z,1.33
2023-04-24T04:19:39.212Z,1.03
2023-04-24T04:22:09.120Z,1.17
2023-04-24T04:24:44.134Z,1.00
2023-04-24T04:27:13.536Z,1.00
2023-04-24T04:29:54.990Z,1.17
2023-04-24T04:32:23.405Z,1.00
2023-04-24T04:34:54.386Z,1.40
2023-04-24T04:37:26.325Z,2.07
2023-04-24T04:40:22.155Z,1.30
2023-04-24T04:42:56.887Z,1.40
2023-04-24T04:45:28.002Z,1.50
2023-04-24T04:48:19.636Z,1.37
2023-04-24T04:50:48.378Z,1.50
2023-04-24T04:53:18.623Z,1.97
2023-04-24T04:55:47.462Z,1.87
2023-04-24T04:58:17.850Z,1.50
2023-04-24T05:00:47.766Z,1.70
2023-04-24T05:03:26.310Z,1.83
2023-04-24T05:06:01.072Z,1.80
2023-04-24T05:08:32.094Z,1.53
2023-04-24T05:11:01.362Z,2.13
2023-04-24T05:13:39.391Z,1.70
2023-04-24T05:16:21.920Z,2.00
2023-04-24T05:18:52.370Z,1.87
2023-04-24T05:21:25.322Z,1.70
2023-04-24T05:23:55.908Z,2.03
2023-04-24T05:26:38.121Z,1.97
2023-04-24T05:29:06.952Z,1.80
2023-04-24T05:31:35.446Z,1.80
2023-04-24T05:34:04.078Z,2.07
2023-04-24T05:36:33.022Z,2.10
2023-04-24T05:39:02.729Z,2.27
2023-04-24T05:41:31.102Z,2.50
2023-04-24T05:43:59.490Z,2.13
2023-04-24T05:46:28.945Z,2.53
2023-04-24T05:48:58.346Z,2.60
2023-04-24T05:51:26.887Z,2.20
2023-04-24T05:53:55.733Z,2.43
2023-04-24T05:56:26.107Z,3.13
2023-04-24T05:58:54.481Z,2.50
2023-04-24T06:01:22.897Z,2.80
2023-04-24T06:03:58.932Z,2.80
2023-04-24T06:06:28.244Z,2.40
2023-04-24T06:08:58.101Z,2.40
2023-04-24T06:11:28.723Z,2.57
2023-04-24T06:13:57.393Z,2.30
2023-04-24T06:16:55.115Z,1.93
2023-04-24T06:19:33.823Z,2.03
2023-04-24T06:22:02.342Z,2.50
2023-04-24T06:24:31.050Z,2.40
2023-04-24T06:27:02.286Z,2.10
2023-04-24T06:29:30.976Z,2.37
2023-04-24T06:31:59.518Z,2.57
2023-04-24T06:34:27.950Z,2.40
2023-04-24T06:36:57.077Z,2.63
2023-04-24T06:39:25.438Z,2.50
2023-04-24T06:41:53.893Z,2.70
2023-04-24T06:44:23.859Z,2.63
2023-04-24T06:46:52.273Z,2.67
2023-04-24T06:49:21.210Z,2.20
2023-04-24T06:51:49.564Z,2.70
2023-04-24T06:54:17.913Z,2.53
2023-04-24T06:56:47.639Z,2.80
2023-04-24T06:59:16.045Z,2.83
2023-04-24T07:01:46.120Z,2.70
2023-04-24T07:04:14.800Z,2.70
2023-04-24T07:06:43.384Z,2.63
2023-04-24T07:09:11.775Z,2.50
2023-04-24T07:11:41.683Z,3.40
2023-04-24T07:14:10.168Z,2.70
2023-04-24T07:16:38.715Z,2.63
2023-04-24T07:19:08.614Z,2.27
2023-04-24T07:21:37.030Z,2.43
2023-04-24T07:24:05.661Z,3.00
2023-04-24T07:26:34.279Z,3.17
2023-04-24T07:29:02.680Z,3.10
2023-04-24T07:31:31.196Z,3.00
2023-04-24T07:33:59.924Z,3.27
2023-04-24T07:36:29.825Z,4.13
2023-04-24T07:38:58.487Z,6.00
2023-04-24T07:41:28.705Z,3.27
2023-04-24T07:43:57.085Z,2.30
2023-04-24T07:46:25.862Z,2.53
2023-04-24T07:49:09.252Z,2.73
2023-04-24T07:51:42.887Z,2.47
2023-04-24T07:54:12.125Z,2.40
2023-04-24T07:56:40.788Z,2.83
2023-04-24T07:59:10.713Z,2.30
2023-04-24T08:01:39.432Z,2.90
2023-04-24T08:04:08.121Z,2.90
2023-04-24T08:06:36.880Z,3.13
2023-04-24T08:09:06.651Z,3.20
2023-04-24T08:11:35.087Z,3.33
2023-04-24T08:14:03.558Z,2.93
2023-04-24T08:16:32.061Z,3.17
2023-04-24T08:19:00.472Z,3.20
2023-04-24T08:21:29.011Z,3.90
2023-04-24T08:23:57.403Z,3.37
2023-04-24T08:26:27.585Z,2.80
2023-04-24T08:28:58.897Z,2.40
2023-04-24T08:31:28.023Z,2.93
2023-04-24T08:33:56.468Z,3.30
2023-04-24T08:36:28.332Z,2.73
2023-04-24T08:39:01.504Z,2.80
2023-04-24T08:41:32.397Z,2.50
2023-04-24T08:44:01.140Z,3.00
2023-04-24T08:46:30.362Z,3.00
2023-04-24T08:49:00.002Z,2.63
2023-04-24T08:51:36.108Z,3.40
2023-04-24T08:54:08.326Z,2.90
2023-04-24T08:56:40.403Z,2.90
2023-04-24T08:59:10.049Z,2.60
2023-04-24T09:01:41.527Z,2.60
2023-04-24T09:04:13.316Z,3.37
2023-04-24T09:06:42.427Z,3.03
2023-04-24T09:09:12.640Z,2.43
2023-04-24T09:11:42.953Z,2.63
2023-04-24T09:14:12.651Z,2.53
2023-04-24T09:16:41.203Z,2.57
2023-04-24T09:19:09.954Z,2.40
2023-04-24T09:21:39.543Z,3.20
2023-04-24T09:24:10.229Z,2.60
2023-04-24T09:26:39.220Z,2.37
2023-04-24T09:29:09.040Z,2.60
2023-04-24T09:31:37.447Z,2.90
2023-04-24T09:34:08.531Z,3.10
2023-04-24T09:36:39.144Z,2.60
2023-04-24T09:39:11.937Z,2.87
2023-04-24T09:41:47.279Z,3.17
2023-04-24T09:44:18.420Z,3.10
2023-04-24T09:46:52.137Z,2.77
2023-04-24T09:49:26.697Z,2.80
2023-04-24T09:52:04.790Z,2.43
2023-04-24T09:54:33.216Z,2.10
2023-04-24T09:57:02.143Z,2.43
2023-04-24T09:59:32.528Z,2.13
2023-04-24T10:02:02.672Z,2.30
2023-04-24T10:04:31.900Z,1.80
2023-04-24T10:07:02.111Z,1.90
2023-04-24T10:09:30.543Z,2.67
2023-04-24T10:11:59.169Z,2.00
2023-04-24T10:14:28.034Z,2.30
2023-04-24T10:16:58.992Z,2.27
2023-04-24T10:19:28.920Z,2.23
2023-04-24T10:21:58.442Z,2.50
2023-04-24T10:24:27.061Z,2.00
2023-04-24T10:26:57.895Z,1.97
2023-04-24T10:29:27.684Z,2.80
2023-04-24T10:31:57.763Z,2.17
2023-04-24T10:34:27.069Z,2.30
2023-04-24T10:36:58.339Z,2.33
2023-04-24T10:39:28.402Z,2.27
2023-04-24T10:41:58.965Z,2.93
2023-04-24T10:44:27.858Z,2.90
2023-04-24T10:46:58.289Z,2.43
2023-04-24T10:49:32.104Z,3.27
2023-04-24T10:52:06.463Z,2.90
2023-04-24T10:54:38.720Z,3.10
2023-04-24T10:57:31.803Z,2.70
2023-04-24T11:00:17.788Z,2.93
2023-04-24T11:02:53.998Z,2.87
2023-04-24T11:05:24.327Z,2.53
2023-04-24T11:08:15.708Z,2.80
2023-04-24T11:10:47.697Z,1.77
2023-04-24T11:13:18.536Z,1.83
2023-04-24T11:15:47.039Z,1.43
2023-04-24T11:18:17.855Z,1.60
2023-04-24T11:20:46.820Z,1.70
2023-04-24T11:23:16.218Z,1.50
2023-04-24T11:25:44.866Z,1.70
2023-04-24T11:28:18.340Z,1.90
2023-04-24T11:30:46.757Z,2.47
2023-04-24T11:33:23.778Z,1.77
2023-04-24T11:35:54.171Z,1.90
2023-04-24T11:38:24.721Z,2.27
2023-04-24T11:40:54.551Z,2.07
2023-04-24T11:43:24.450Z,2.50
2023-04-24T11:45:52.817Z,1.87
2023-04-24T11:48:24.002Z,2.10
2023-04-24T11:50:56.745Z,1.77
2023-04-24T11:53:25.246Z,2.10
2023-04-24T11:55:53.646Z,2.30
2023-04-24T11:58:24.600Z,1.60
2023-04-24T12:01:01.880Z,1.63
2023-04-24T12:03:32.166Z,2.10
2023-04-24T12:06:09.122Z,1.83
2023-04-24T12:08:39.005Z,2.03
2023-04-24T12:11:09.480Z,2.20
2023-04-24T12:13:38.307Z,2.53
2023-04-24T12:16:07.716Z,2.70
2023-04-24T12:18:37.517Z,1.73
2023-04-24T12:21:23.450Z,1.70
2023-04-24T12:23:53.048Z,1.73
2023-04-24T12:26:23.746Z,1.90
2023-04-24T12:28:55.598Z,1.20
2023-04-24T12:31:24.825Z,1.20
2023-04-24T12:33:54.693Z,1.47
2023-04-24T12:36:24.046Z,1.60
2023-04-24T12:38:55.850Z,2.07
2023-04-24T12:41:24.249Z,2.07
2023-04-24T12:43:56.574Z,1.67
2023-04-24T12:46:27.070Z,2.10
2023-04-24T12:48:56.820Z,2.13
2023-04-24T12:51:26.384Z,2.33
2023-04-24T12:53:56.522Z,2.70
2023-04-24T12:56:25.361Z,2.77
2023-04-24T12:58:53.777Z,3.17
2023-04-24T13:01:22.272Z,3.47
2023-04-24T13:03:51.042Z,3.87
2023-04-24T13:06:22.004Z,3.80
2023-04-24T13:08:50.491Z,3.50
2023-04-24T13:11:18.901Z,3.20
2023-04-24T13:13:47.313Z,3.67
2023-04-24T13:16:15.762Z,3.67
2023-04-24T13:18:44.196Z,3.60
2023-04-24T13:21:12.721Z,4.07
2023-04-24T13:23:45.634Z,4.53
2023-04-24T13:26:14.057Z,3.10
2023-04-24T13:28:42.472Z,3.63
2023-04-24T13:31:10.951Z,3.77
2023-04-24T13:33:39.292Z,3.73
2023-04-24T13:36:08.097Z,3.67
2023-04-24T13:38:37.304Z,2.60
2023-04-24T13:41:07.126Z,3.07
2023-04-24T13:43:35.630Z,2.53
2023-04-24T13:46:04.824Z,2.37
2023-04-24T13:48:33.247Z,2.77
2023-04-24T13:51:01.702Z,2.30
2023-04-24T13:53:30.127Z,2.60
2023-04-24T13:55:58.504Z,3.50
2023-04-24T13:58:29.190Z,3.20
2023-04-24T14:00:58.001Z,3.47
2023-04-24T14:03:26.978Z,3.50
2023-04-24T14:05:55.487Z,3.90
2023-04-24T14:08:24.105Z,3.67
2023-04-24T14:10:52.763Z,3.20
2023-04-24T14:13:21.689Z,3.67
2023-04-24T14:15:51.546Z,3.90
2023-04-24T14:18:19.966Z,4.73
2023-04-24T14:20:48.341Z,2.90
2023-04-24T14:23:18.620Z,4.70
2023-04-24T14:25:49.490Z,4.27
2023-04-24T14:28:17.910Z,3.90
2023-04-24T14:30:46.336Z,4.20
2023-04-24T14:33:16.549Z,5.00
2023-04-24T14:35:45.221Z,3.80
2023-04-24T14:38:13.719Z,3.67
2023-04-24T14:41:02.574Z,4.20
2023-04-24T14:43:31.029Z,3.63
2023-04-24T14:45:59.435Z,3.33
2023-04-24T14:48:29.194Z,4.07
2023-04-24T14:50:57.571Z,3.90
2023-04-24T14:53:26.026Z,4.20
2023-04-24T14:55:54.407Z,3.30
2023-04-24T14:58:22.771Z,3.50
2023-04-24T15:00:53.025Z,4.07
2023-04-24T15:03:22.694Z,4.30
2023-04-24T15:05:53.084Z,5.23
2023-04-24T15:08:21.620Z,4.50
2023-04-24T15:10:50.428Z,4.40
2023-04-24T15:13:18.777Z,5.07
2023-04-24T15:15:48.989Z,4.33
2023-04-24T15:18:17.315Z,4.63
2023-04-24T15:20:45.839Z,5.40
2023-04-24T15:23:15.594Z,4.27
2023-04-24T15:25:44.016Z,5.07
2023-04-24T15:28:12.507Z,4.60
2023-04-24T15:30:41.031Z,3.83
2023-04-24T15:33:11.392Z,4.00
2023-04-24T15:35:39.834Z,3.80
2023-04-24T15:38:08.470Z,3.43
2023-04-24T15:40:39.430Z,3.83
2023-04-24T15:43:07.838Z,3.53
2023-04-24T15:45:36.356Z,3.50
2023-04-24T15:48:05.269Z,3.63
2023-04-24T15:50:34.177Z,3.70
2023-04-24T15:53:02.561Z,4.43
2023-04-24T15:55:31.135Z,4.00
2023-04-24T15:58:01.181Z,4.50
2023-04-24T16:00:34.444Z,4.23
2023-04-24T16:03:03.762Z,3.87
2023-04-24T16:05:32.235Z,3.63
2023-04-24T16:08:00.675Z,4.00
2023-04-24T16:10:29.382Z,3.70
2023-04-24T16:12:58.009Z,3.53
2023-04-24T16:15:28.350Z,3.90
2023-04-24T16:17:57.075Z,4.00
2023-04-24T16:20:25.665Z,4.57
2023-04-24T16:22:54.013Z,4.10
2023-04-24T16:25:22.631Z,4.30
2023-04-24T16:27:52.785Z,3.93
2023-04-24T16:30:21.401Z,4.37
2023-04-24T16:32:51.191Z,4.60
2023-04-24T16:35:19.857Z,4.40
2023-04-24T16:37:48.268Z,4.00
2023-04-24T16:40:16.605Z,4.90
2023-04-24T16:42:44.991Z,4.50
2023-04-24T16:45:13.514Z,5.40
2023-04-24T16:47:42.020Z,4.10
2023-04-24T16:50:12.770Z,4.00
2023-04-24T16:52:41.331Z,4.23
2023-04-24T16:55:10.916Z,5.10
2023-04-24T16:57:39.393Z,5.73
2023-04-24T17:00:09.938Z,4.70
2023-04-24T17:02:38.394Z,4.60
2023-04-24T17:05:08.032Z,5.10
2023-04-24T17:07:37.751Z,4.07
2023-04-24T17:10:09.083Z,4.57
2023-04-24T17:12:37.515Z,4.50
2023-04-24T17:15:07.492Z,3.90
2023-04-24T17:17:36.369Z,4.43
2023-04-24T17:20:18.609Z,4.00
2023-04-24T17:22:52.374Z,4.17
2023-04-24T17:25:21.492Z,4.47
2023-04-24T17:27:49.966Z,3.87
2023-04-24T17:30:18.714Z,3.93
2023-04-24T17:32:47.388Z,4.40
2023-04-24T17:35:16.065Z,3.70
2023-04-24T17:37:44.651Z,4.90
2023-04-24T17:40:15.230Z,3.77
2023-04-24T17:42:43.623Z,4.23
2023-04-24T17:45:13.466Z,4.00
2023-04-24T17:47:42.437Z,3.67
2023-04-24T17:50:11.351Z,4.03
2023-04-24T17:52:39.799Z,3.70
2023-04-24T17:55:09.298Z,3.53
2023-04-24T17:57:39.084Z,4.47
2023-04-24T18:00:09.822Z,5.07
2023-04-24T18:02:38.871Z,4.80
2023-04-24T18:05:07.694Z,4.67
2023-04-24T18:07:36.134Z,4.73
2023-04-24T18:10:04.776Z,4.57
2023-04-24T18:12:33.255Z,3.80
2023-04-24T18:15:13.602Z,3.80
2023-04-24T18:17:43.026Z,4.40
2023-04-24T18:20:12.430Z,3.70
2023-04-24T18:22:41.348Z,3.63
2023-04-24T18:25:11.315Z,3.90
2023-04-24T18:27:40.291Z,3.63
2023-04-24T18:30:14.742Z,3.93
2023-04-24T18:32:43.798Z,3.03
2023-04-24T18:35:12.294Z,3.10
2023-04-24T18:37:41.156Z,3.00
2023-04-24T18:40:11.353Z,3.93
2023-04-24T18:42:39.898Z,3.57
2023-04-24T18:45:13.790Z,3.60
2023-04-24T18:47:45.880Z,3.90
2023-04-24T18:50:14.702Z,4.37
2023-04-24T18:52:43.178Z,3.67
2023-04-24T18:55:11.853Z,4.03
2023-04-24T18:57:40.337Z,5.13
2023-04-24T19:00:11.926Z,3.90
2023-04-24T19:02:40.486Z,4.40
2023-04-24T19:05:10.476Z,4.90
2023-04-24T19:07:38.957Z,5.10
2023-04-24T19:10:09.346Z,4.20
2023-04-24T19:12:37.844Z,3.87
2023-04-24T19:15:11.638Z,4.70
2023-04-24T19:17:40.160Z,4.40
2023-04-24T19:20:09.621Z,4.07
2023-04-24T19:22:38.141Z,3.17
2023-04-24T19:25:07.665Z,2.80
2023-04-24T19:27:36.224Z,2.87
2023-04-24T19:30:05.175Z,2.97
2023-04-24T19:32:35.174Z,2.83
2023-04-24T19:35:03.955Z,2.80
2023-04-24T19:37:34.360Z,3.10
2023-04-24T19:40:03.647Z,4.17
2023-04-24T19:42:43.186Z,3.10
2023-04-24T19:45:13.021Z,2.57
2023-04-24T19:47:43.314Z,3.30
2023-04-24T19:50:11.958Z,3.00
2023-04-24T19:52:40.487Z,3.50
2023-04-24T19:55:10.353Z,3.20
2023-04-24T19:57:38.812Z,4.10
2023-04-24T20:00:09.135Z,3.40
2023-04-24T20:02:37.718Z,3.40
2023-04-24T20:05:09.735Z,3.53
2023-04-24T20:07:38.328Z,3.70
2023-04-24T20:10:08.423Z,3.70
2023-04-24T20:12:37.007Z,4.20
2023-04-24T20:15:06.218Z,3.70
2023-04-24T20:17:34.566Z,3.73
2023-04-24T20:20:03.107Z,3.37
2023-04-24T20:22:38.621Z,3.20
2023-04-24T20:25:08.852Z,3.07
2023-04-24T20:27:37.494Z,3.47
2023-04-24T20:30:10.628Z,3.80
2023-04-24T20:32:39.568Z,3.43
2023-04-24T20:35:09.695Z,4.50
2023-04-24T20:37:40.076Z,4.67
2023-04-24T20:40:10.016Z,4.50
2023-04-24T20:42:39.530Z,5.07
2023-04-24T20:45:09.462Z,4.53
2023-04-24T20:47:37.887Z,4.70
2023-04-24T20:50:07.971Z,5.47
2023-04-24T20:52:36.372Z,4.90
2023-04-24T20:55:07.865Z,4.27
2023-04-24T20:57:36.562Z,5.13
2023-04-24T21:00:08.721Z,4.30
2023-04-24T21:02:37.479Z,5.50
2023-04-24T21:05:06.953Z,5.20
2023-04-24T21:07:35.308Z,6.07
2023-04-24T21:10:05.341Z,5.20
2023-04-24T21:12:33.688Z,5.30
2023-04-24T21:15:02.268Z,4.90
2023-04-24T21:17:30.754Z,5.50
2023-04-24T21:19:59.147Z,6.50
2023-04-24T21:22:27.520Z,6.10
2023-04-24T21:24:55.999Z,5.70
2023-04-24T21:27:25.811Z,6.33
2023-04-24T21:29:54.292Z,6.40
2023-04-24T21:32:22.830Z,6.43
2023-04-24T21:34:51.190Z,7.90
2023-04-24T21:37:19.625Z,7.20
2023-04-24T21:39:48.012Z,5.87
2023-04-24T21:42:16.868Z,5.40
2023-04-24T21:44:46.703Z,5.87
2023-04-24T21:47:15.129Z,5.17
2023-04-24T21:49:43.696Z,5.37
2023-04-24T21:52:12.214Z,5.47
2023-04-24T21:54:40.904Z,4.93
2023-04-24T21:57:09.621Z,5.23
2023-04-24T21:59:38.202Z,4.77
2023-04-24T22:02:08.191Z,4.10
2023-04-24T22:04:40.061Z,4.07
2023-04-24T22:07:08.806Z,4.63
2023-04-24T22:09:37.369Z,4.43
2023-04-24T22:12:07.085Z,4.70
2023-04-24T22:14:35.480Z,4.67
2023-04-24T22:17:03.900Z,5.27
2023-04-24T22:19:33.696Z,5.30
2023-04-24T22:22:02.194Z,5.43
2023-04-24T22:24:30.742Z,5.70
2023-04-24T22:26:59.143Z,5.93
2023-04-24T22:29:27.682Z,6.10
2023-04-24T22:31:57.843Z,6.63
2023-04-24T22:34:26.990Z,5.43
2023-04-24T22:36:56.774Z,6.50
2023-04-24T22:39:25.673Z,7.20
2023-04-24T22:41:54.446Z,6.40
2023-04-24T22:44:23.206Z,7.37
2023-04-24T22:46:52.139Z,7.90
2023-04-24T22:49:21.543Z,8.17
2023-04-24T22:51:51.804Z,7.97
2023-04-24T22:54:21.575Z,8.13
2023-04-24T22:56:50.118Z,7.37
2023-04-24T22:59:18.938Z,7.63
2023-04-24T23:01:47.392Z,7.87
2023-04-24T23:04:15.963Z,7.87
2023-04-24T23:06:44.466Z,8.63
2023-04-24T23:09:12.938Z,8.37
2023-04-24T23:11:42.724Z,9.30
2023-04-24T23:14:11.419Z,7.97
2023-04-24T23:16:41.095Z,9.47
2023-04-24T23:19:09.666Z,9.63
2023-04-24T23:21:38.214Z,9.37
2023-04-24T23:24:07.618Z,7.90
2023-04-24T23:26:37.193Z,8.70
2023-04-24T23:29:06.967Z,7.70
2023-04-24T23:31:35.405Z,7.23
2023-04-24T23:34:03.717Z,7.77
2023-04-24T23:36:32.794Z,8.63
2023-04-24T23:39:01.933Z,7.80
2023-04-24T23:41:30.328Z,8.00
2023-04-24T23:43:58.748Z,8.43
2023-04-24T23:46:28.612Z,7.63
2023-04-24T23:48:57.153Z,8.00
2023-04-24T23:51:25.731Z,8.17
2023-04-24T23:53:54.448Z,7.40
2023-04-24T23:56:24.412Z,7.30
2023-04-24T23:58:52.786Z,6.80
